Bush, Louisiana
Current Conditions -  °F | °C
As of 3:53 AM on Saturday 22 Nov 2014 (Local Time) from KASD Reporting Station
Clear Clear  
Wind Chill: 51°   Ceiling: Unl
Heat Index: 51°   Visibility: 10mi
Dew Point: 46°   Wind: 5mph
Humidity: 83%   Direction: 70°ENE
Pressure: 30.23"   Gusts: NA
Location:  30.61°N, 89.9°W
Report Text: KASD 220953Z AUTO 07004KT 10SM CLR 11/08 A3023 RMK AO2 SLP238 T01060078
Loading
Personal Weather Stations






























Interactive Weather Map New forecast layout! Learn more

10-Day Weather Forecast

Advertisements
Track Severe Weather on mobile